Hiwassee, Virginia
Current Conditions -  °F | °C
As of 10:15 AM on Friday 19 Dec 2014 (Local Time) from KPSK Reporting Station
Scattered Clouds Scattered Clouds  
Wind Chill: 30°   Ceiling: Unl
Heat Index: 36°   Visibility: 10mi
Dew Point: 25°   Wind: 7mph
Humidity: 65%   Direction: 270°W
Pressure: 30.19"   Gusts: NA
Location:  36.97°N, 80.71°W
Report Text: KPSK 191515Z AUTO 27006KT 10SM SCT026 02/M04 A3019 RMK AO2 T00211039
Loading
Personal Weather Stations






























Interactive Weather Map New forecast layout! Learn more

10-Day Weather Forecast

Advertisements
Track Severe Weather on mobile